createdAt,value
2022-12-31T00:06:38.097Z,11.9
2022-12-31T00:26:41.841Z,12.1
2022-12-31T00:46:46.228Z,12.2
2022-12-31T00:56:48.211Z,12.1
2022-12-31T01:06:50.721Z,12
2022-12-31T01:16:52.821Z,11.9
2022-12-31T01:36:56.310Z,11.6
2022-12-31T01:46:58.475Z,11.6
2022-12-31T01:57:00.838Z,11.8
2022-12-31T02:07:03.045Z,12
2022-12-31T02:17:05.451Z,12.3
2022-12-31T02:27:07.292Z,12.7
2022-12-31T02:47:11.787Z,13.1
2022-12-31T02:57:14.168Z,13.6
2022-12-31T03:07:16.018Z,13.4
2022-12-31T03:17:17.764Z,14
2022-12-31T03:27:20.167Z,14.1
2022-12-31T03:37:22.242Z,13.8
2022-12-31T03:47:24.691Z,13.7
2022-12-31T03:57:26.465Z,13.7
2022-12-31T04:07:28.551Z,13.5
2022-12-31T04:27:32.424Z,13.3
2022-12-31T04:37:34.707Z,13.2
2022-12-31T04:57:38.731Z,13.9
2022-12-31T05:17:42.974Z,14.5
2022-12-31T05:37:47.231Z,15.1
2022-12-31T05:47:49.702Z,15.3
2022-12-31T05:57:51.371Z,15.4
2022-12-31T06:07:53.918Z,15.5
2022-12-31T06:17:55.549Z,15.4
2022-12-31T06:27:57.460Z,15.3
2022-12-31T06:37:59.681Z,15.6
2022-12-31T06:48:01.913Z,15.8
2022-12-31T06:58:04.105Z,15.8
2022-12-31T07:08:05.892Z,15.9
2022-12-31T07:18:08.306Z,15.8
2022-12-31T07:28:10.741Z,15.8
2022-12-31T07:38:13.286Z,16.1
2022-12-31T07:58:16.667Z,15.9
2022-12-31T08:08:19.038Z,16.1
2022-12-31T08:18:21.659Z,16
2022-12-31T08:28:24.023Z,16.2
2022-12-31T08:38:25.680Z,16.1
2022-12-31T08:58:29.986Z,16.4
2022-12-31T09:08:32.547Z,16.5
2022-12-31T09:18:34.259Z,16.5
2022-12-31T09:28:36.509Z,16.6
2022-12-31T09:28:58.446Z,16.5
2022-12-31T09:38:45.750Z,16.5
2022-12-31T09:48:47.396Z,15.7
2022-12-31T09:58:49.790Z,16.3
2022-12-31T10:08:52.374Z,16.2
2022-12-31T10:18:54.599Z,15.7
2022-12-31T10:38:58.414Z,16.3
2022-12-31T10:59:02.548Z,16.4
2022-12-31T11:09:04.167Z,16.6
2022-12-31T11:19:06.606Z,16.9
2022-12-31T11:29:08.655Z,17
2022-12-31T11:39:11.220Z,17
2022-12-31T11:49:13.264Z,16.9
2022-12-31T11:59:19.163Z,16.7
2022-12-31T12:09:17.430Z,16.8
2022-12-31T12:19:19.304Z,16.6
2022-12-31T12:29:21.295Z,16.4
2022-12-31T12:39:23.917Z,16.3
2022-12-31T12:49:25.703Z,15.7
2022-12-31T12:59:28.239Z,14.9
2022-12-31T13:09:30.160Z,15.2
2022-12-31T13:19:31.867Z,15.3
2022-12-31T13:29:33.894Z,15.7
2022-12-31T13:39:35.722Z,15.9
2022-12-31T13:49:38.103Z,16
2022-12-31T13:59:40.500Z,16.2
2022-12-31T14:09:42.875Z,15.5
2022-12-31T14:19:45.100Z,15.2
2022-12-31T14:39:49.709Z,15.8
2022-12-31T14:49:51.393Z,15.9
2022-12-31T14:59:53.748Z,15.9
2022-12-31T15:09:56.217Z,15.8
2022-12-31T15:19:58.167Z,15.6
2022-12-31T15:30:00.497Z,15.4
2022-12-31T15:40:03.105Z,15.1
2022-12-31T15:50:05.366Z,15.1
2022-12-31T16:00:07.068Z,15.1
2022-12-31T16:10:09.249Z,15.2
2022-12-31T16:20:11.255Z,15.3
2022-12-31T16:30:13.647Z,15.7
2022-12-31T16:40:15.544Z,15.7
2022-12-31T16:50:17.704Z,15.6
2022-12-31T17:00:19.614Z,15.8
2022-12-31T17:10:21.865Z,15.9
2022-12-31T17:20:23.835Z,15.7
2022-12-31T17:30:26.296Z,15.7
2022-12-31T17:40:50.249Z,15.5
2022-12-31T17:50:30.188Z,15.6
2022-12-31T18:00:32.204Z,15.7
2022-12-31T18:10:34.607Z,15.6
2022-12-31T18:20:37.044Z,15.6
2022-12-31T18:30:39.185Z,15.4
2022-12-31T18:40:41.773Z,15.4
2022-12-31T18:50:43.610Z,15.4
2022-12-31T19:00:45.770Z,15
2022-12-31T19:10:47.759Z,15.2
2022-12-31T19:20:49.710Z,15.2
2022-12-31T19:30:51.896Z,15.2
2022-12-31T19:40:54.018Z,15.3
2022-12-31T19:50:56.408Z,15.1
2022-12-31T20:11:01.309Z,15.1
2022-12-31T20:51:09.199Z,15.8
2022-12-31T21:01:11.273Z,15.6
2022-12-31T21:21:15.323Z,15.6
2022-12-31T21:31:17.682Z,15.6
2022-12-31T21:41:20.164Z,15.7
2022-12-31T21:51:22.475Z,15.7
2022-12-31T22:01:24.701Z,15.8
2022-12-31T22:11:26.565Z,15.9
2022-12-31T22:21:28.715Z,15.8
2022-12-31T22:41:32.468Z,16
2022-12-31T22:51:54.642Z,16.1
2022-12-31T23:01:36.935Z,16.1
2022-12-31T23:11:39.280Z,16.2
2022-12-31T23:31:43.410Z,15.9
2022-12-31T23:51:46.910Z,16.1
